sensor_id;sensor_type;location;lat;lon;timestamp;temperature;humidity
28171;DHT22;15458;53.346;-1.688;2022-11-09T00:01:27;9.30;99.90
28171;DHT22;15458;53.346;-1.688;2022-11-09T00:04:00;9.40;99.90
28171;DHT22;15458;53.346;-1.688;2022-11-09T00:06:27;9.30;99.90
28171;DHT22;15458;53.346;-1.688;2022-11-09T00:08:53;9.30;99.90
28171;DHT22;15458;53.346;-1.688;2022-11-09T00:11:19;9.40;99.90
28171;DHT22;15458;53.346;-1.688;2022-11-09T00:13:46;9.40;99.90
28171;DHT22;15458;53.346;-1.688;2022-11-09T00:16:15;9.40;99.90
28171;DHT22;15458;53.346;-1.688;2022-11-09T00:18:41;9.30;99.90
28171;DHT22;15458;53.346;-1.688;2022-11-09T00:21:21;9.30;99.90
28171;DHT22;15458;53.346;-1.688;2022-11-09T00:23:47;9.30;99.90
28171;DHT22;15458;53.346;-1.688;2022-11-09T00:26:15;9.30;99.90
28171;DHT22;15458;53.346;-1.688;2022-11-09T00:28:41;9.30;99.90
28171;DHT22;15458;53.346;-1.688;2022-11-09T00:31:18;9.30;99.90
28171;DHT22;15458;53.346;-1.688;2022-11-09T00:33:48;9.30;99.90
28171;DHT22;15458;53.346;-1.688;2022-11-09T00:36:17;9.30;99.90
28171;DHT22;15458;53.346;-1.688;2022-11-09T00:38:50;9.30;99.90
28171;DHT22;15458;53.346;-1.688;2022-11-09T00:41:16;9.30;99.90
28171;DHT22;15458;53.346;-1.688;2022-11-09T00:43:42;9.30;99.90
28171;DHT22;15458;53.346;-1.688;2022-11-09T00:46:08;9.30;99.90
28171;DHT22;15458;53.346;-1.688;2022-11-09T00:48:36;9.30;99.90
28171;DHT22;15458;53.346;-1.688;2022-11-09T00:51:02;9.30;99.90
28171;DHT22;15458;53.346;-1.688;2022-11-09T00:53:29;9.30;99.90
28171;DHT22;15458;53.346;-1.688;2022-11-09T00:56:10;9.30;99.90
28171;DHT22;15458;53.346;-1.688;2022-11-09T00:58:36;9.30;99.90
28171;DHT22;15458;53.346;-1.688;2022-11-09T01:01:15;9.40;99.90
28171;DHT22;15458;53.346;-1.688;2022-11-09T01:03:43;9.30;99.90
28171;DHT22;15458;53.346;-1.688;2022-11-09T01:06:16;9.40;99.90
28171;DHT22;15458;53.346;-1.688;2022-11-09T01:08:42;9.40;99.90
28171;DHT22;15458;53.346;-1.688;2022-11-09T01:11:09;9.50;99.90
28171;DHT22;15458;53.346;-1.688;2022-11-09T01:13:36;9.50;99.90
28171;DHT22;15458;53.346;-1.688;2022-11-09T01:16:08;9.50;99.90
28171;DHT22;15458;53.346;-1.688;2022-11-09T01:18:34;9.50;99.90
28171;DHT22;15458;53.346;-1.688;2022-11-09T01:21:02;9.60;99.90
28171;DHT22;15458;53.346;-1.688;2022-11-09T01:23:28;9.50;99.90
28171;DHT22;15458;53.346;-1.688;2022-11-09T01:25:58;9.60;99.90
28171;DHT22;15458;53.346;-1.688;2022-11-09T01:28:24;9.60;99.90
28171;DHT22;15458;53.346;-1.688;2022-11-09T01:30:52;9.60;99.90
28171;DHT22;15458;53.346;-1.688;2022-11-09T01:33:19;9.50;99.90
28171;DHT22;15458;53.346;-1.688;2022-11-09T01:35:44;9.60;99.90
28171;DHT22;15458;53.346;-1.688;2022-11-09T01:38:11;9.50;99.90
28171;DHT22;15458;53.346;-1.688;2022-11-09T01:40:38;9.50;99.90
28171;DHT22;15458;53.346;-1.688;2022-11-09T01:43:14;9.60;99.90
28171;DHT22;15458;53.346;-1.688;2022-11-09T01:45:41;9.60;99.90
28171;DHT22;15458;53.346;-1.688;2022-11-09T01:48:14;9.60;99.90
28171;DHT22;15458;53.346;-1.688;2022-11-09T01:51:02;9.50;99.90
28171;DHT22;15458;53.346;-1.688;2022-11-09T01:53:33;9.50;99.90
28171;DHT22;15458;53.346;-1.688;2022-11-09T01:56:04;9.50;99.90
28171;DHT22;15458;53.346;-1.688;2022-11-09T01:58:41;9.50;99.90
28171;DHT22;15458;53.346;-1.688;2022-11-09T02:01:07;9.50;99.90
28171;DHT22;15458;53.346;-1.688;2022-11-09T02:03:43;9.50;99.90
28171;DHT22;15458;53.346;-1.688;2022-11-09T02:06:12;9.50;99.90
28171;DHT22;15458;53.346;-1.688;2022-11-09T02:08:39;9.50;99.90
28171;DHT22;15458;53.346;-1.688;2022-11-09T02:11:09;9.50;99.90
28171;DHT22;15458;53.346;-1.688;2022-11-09T02:13:42;9.50;99.90
28171;DHT22;15458;53.346;-1.688;2022-11-09T02:16:11;9.50;99.90
28171;DHT22;15458;53.346;-1.688;2022-11-09T02:18:44;9.50;99.90
28171;DHT22;15458;53.346;-1.688;2022-11-09T02:21:12;9.50;99.90
28171;DHT22;15458;53.346;-1.688;2022-11-09T02:23:37;9.40;99.90
28171;DHT22;15458;53.346;-1.688;2022-11-09T02:26:11;9.40;99.90
28171;DHT22;15458;53.346;-1.688;2022-11-09T02:28:38;9.40;99.90
28171;DHT22;15458;53.346;-1.688;2022-11-09T02:31:07;9.40;99.90
28171;DHT22;15458;53.346;-1.688;2022-11-09T02:34:05;9.40;99.90
28171;DHT22;15458;53.346;-1.688;2022-11-09T02:36:32;9.40;99.90
28171;DHT22;15458;53.346;-1.688;2022-11-09T02:38:57;9.40;99.90
28171;DHT22;15458;53.346;-1.688;2022-11-09T02:41:23;9.40;99.90
28171;DHT22;15458;53.346;-1.688;2022-11-09T02:43:51;9.40;99.90
28171;DHT22;15458;53.346;-1.688;2022-11-09T02:46:44;9.40;99.90
28171;DHT22;15458;53.346;-1.688;2022-11-09T02:49:10;9.40;99.90
28171;DHT22;15458;53.346;-1.688;2022-11-09T02:51:36;9.50;99.90
28171;DHT22;15458;53.346;-1.688;2022-11-09T02:54:01;9.50;99.90
28171;DHT22;15458;53.346;-1.688;2022-11-09T02:56:27;9.50;99.90
28171;DHT22;15458;53.346;-1.688;2022-11-09T02:58:53;9.40;99.90
28171;DHT22;15458;53.346;-1.688;2022-11-09T03:01:18;9.40;99.90
28171;DHT22;15458;53.346;-1.688;2022-11-09T03:03:44;9.40;99.90
28171;DHT22;15458;53.346;-1.688;2022-11-09T03:06:10;9.40;99.90
28171;DHT22;15458;53.346;-1.688;2022-11-09T03:08:35;9.40;99.90
28171;DHT22;15458;53.346;-1.688;2022-11-09T03:11:01;9.40;99.90
28171;DHT22;15458;53.346;-1.688;2022-11-09T03:13:27;9.40;99.90
28171;DHT22;15458;53.346;-1.688;2022-11-09T03:15:52;9.40;99.90
28171;DHT22;15458;53.346;-1.688;2022-11-09T03:18:18;9.40;99.90
28171;DHT22;15458;53.346;-1.688;2022-11-09T03:20:44;9.30;99.90
28171;DHT22;15458;53.346;-1.688;2022-11-09T03:23:10;9.40;99.90
28171;DHT22;15458;53.346;-1.688;2022-11-09T03:25:35;9.40;99.90
28171;DHT22;15458;53.346;-1.688;2022-11-09T03:28:03;9.40;99.90
28171;DHT22;15458;53.346;-1.688;2022-11-09T03:30:30;9.40;99.90
28171;DHT22;15458;53.346;-1.688;2022-11-09T03:33:02;9.40;99.90
28171;DHT22;15458;53.346;-1.688;2022-11-09T03:35:29;9.40;99.90
28171;DHT22;15458;53.346;-1.688;2022-11-09T03:37:54;9.40;99.90
28171;DHT22;15458;53.346;-1.688;2022-11-09T03:40:20;9.40;99.90
28171;DHT22;15458;53.346;-1.688;2022-11-09T03:42:47;9.40;99.90
28171;DHT22;15458;53.346;-1.688;2022-11-09T03:45:14;9.40;99.90
28171;DHT22;15458;53.346;-1.688;2022-11-09T03:47:44;9.40;99.90
28171;DHT22;15458;53.346;-1.688;2022-11-09T03:50:11;9.40;99.90
28171;DHT22;15458;53.346;-1.688;2022-11-09T03:52:37;9.40;99.90
28171;DHT22;15458;53.346;-1.688;2022-11-09T03:55:04;9.30;99.90
28171;DHT22;15458;53.346;-1.688;2022-11-09T03:57:29;9.40;99.90
28171;DHT22;15458;53.346;-1.688;2022-11-09T03:59:55;9.40;99.90
28171;DHT22;15458;53.346;-1.688;2022-11-09T04:02:21;9.40;99.90
28171;DHT22;15458;53.346;-1.688;2022-11-09T04:04:47;9.40;99.90
28171;DHT22;15458;53.346;-1.688;2022-11-09T04:07:13;9.40;99.90
28171;DHT22;15458;53.346;-1.688;2022-11-09T04:09:39;9.40;99.90
28171;DHT22;15458;53.346;-1.688;2022-11-09T04:12:04;9.40;99.90
28171;DHT22;15458;53.346;-1.688;2022-11-09T04:14:30;9.40;99.90
28171;DHT22;15458;53.346;-1.688;2022-11-09T04:16:58;9.40;99.90
28171;DHT22;15458;53.346;-1.688;2022-11-09T04:19:24;9.40;99.90
28171;DHT22;15458;53.346;-1.688;2022-11-09T04:21:50;9.40;99.90
28171;DHT22;15458;53.346;-1.688;2022-11-09T04:24:16;9.40;99.90
28171;DHT22;15458;53.346;-1.688;2022-11-09T04:26:41;9.40;99.90
28171;DHT22;15458;53.346;-1.688;2022-11-09T04:29:07;9.40;99.90
28171;DHT22;15458;53.346;-1.688;2022-11-09T04:31:33;9.50;99.90
28171;DHT22;15458;53.346;-1.688;2022-11-09T04:33:58;9.40;99.90
28171;DHT22;15458;53.346;-1.688;2022-11-09T04:36:24;9.40;99.90
28171;DHT22;15458;53.346;-1.688;2022-11-09T04:38:50;9.40;99.90
28171;DHT22;15458;53.346;-1.688;2022-11-09T04:41:16;9.40;99.90
28171;DHT22;15458;53.346;-1.688;2022-11-09T04:43:41;9.40;99.90
28171;DHT22;15458;53.346;-1.688;2022-11-09T04:46:07;9.40;99.90
28171;DHT22;15458;53.346;-1.688;2022-11-09T04:48:33;9.30;99.90
28171;DHT22;15458;53.346;-1.688;2022-11-09T04:51:07;9.30;99.90
28171;DHT22;15458;53.346;-1.688;2022-11-09T04:53:33;9.30;99.90
28171;DHT22;15458;53.346;-1.688;2022-11-09T04:56:00;9.30;99.90
28171;DHT22;15458;53.346;-1.688;2022-11-09T04:58:26;9.30;99.90
28171;DHT22;15458;53.346;-1.688;2022-11-09T05:00:52;9.30;99.90
28171;DHT22;15458;53.346;-1.688;2022-11-09T05:03:18;9.30;99.90
28171;DHT22;15458;53.346;-1.688;2022-11-09T05:05:44;9.20;99.90
28171;DHT22;15458;53.346;-1.688;2022-11-09T05:08:10;9.20;99.90
28171;DHT22;15458;53.346;-1.688;2022-11-09T05:10:36;9.20;99.90
28171;DHT22;15458;53.346;-1.688;2022-11-09T05:13:07;9.20;99.90
28171;DHT22;15458;53.346;-1.688;2022-11-09T05:15:35;9.10;99.90
28171;DHT22;15458;53.346;-1.688;2022-11-09T05:18:01;9.10;99.90
28171;DHT22;15458;53.346;-1.688;2022-11-09T05:20:27;9.10;99.90
28171;DHT22;15458;53.346;-1.688;2022-11-09T05:22:53;9.00;99.90
28171;DHT22;15458;53.346;-1.688;2022-11-09T05:25:38;9.00;99.90
28171;DHT22;15458;53.346;-1.688;2022-11-09T05:28:04;9.00;99.90
28171;DHT22;15458;53.346;-1.688;2022-11-09T05:30:30;8.90;99.90
28171;DHT22;15458;53.346;-1.688;2022-11-09T05:32:55;9.00;99.90
28171;DHT22;15458;53.346;-1.688;2022-11-09T05:35:21;8.90;99.90
28171;DHT22;15458;53.346;-1.688;2022-11-09T05:37:48;8.90;99.90
28171;DHT22;15458;53.346;-1.688;2022-11-09T05:40:15;8.90;99.90
28171;DHT22;15458;53.346;-1.688;2022-11-09T05:42:42;8.90;99.90
28171;DHT22;15458;53.346;-1.688;2022-11-09T05:45:12;8.80;99.90
28171;DHT22;15458;53.346;-1.688;2022-11-09T05:47:40;8.80;99.90
28171;DHT22;15458;53.346;-1.688;2022-11-09T05:50:07;8.80;99.90
28171;DHT22;15458;53.346;-1.688;2022-11-09T05:52:33;8.80;99.90
28171;DHT22;15458;53.346;-1.688;2022-11-09T05:54:59;8.80;99.90
28171;DHT22;15458;53.346;-1.688;2022-11-09T05:57:25;8.80;99.90
28171;DHT22;15458;53.346;-1.688;2022-11-09T05:59:51;8.70;99.90
28171;DHT22;15458;53.346;-1.688;2022-11-09T06:02:17;8.70;99.90
28171;DHT22;15458;53.346;-1.688;2022-11-09T06:04:43;8.70;99.90
28171;DHT22;15458;53.346;-1.688;2022-11-09T06:07:08;8.60;99.90
28171;DHT22;15458;53.346;-1.688;2022-11-09T06:09:34;8.70;99.90
28171;DHT22;15458;53.346;-1.688;2022-11-09T06:12:00;8.60;99.90
28171;DHT22;15458;53.346;-1.688;2022-11-09T06:14:25;8.60;99.90
28171;DHT22;15458;53.346;-1.688;2022-11-09T06:16:51;8.60;99.90
28171;DHT22;15458;53.346;-1.688;2022-11-09T06:19:16;8.60;99.90
28171;DHT22;15458;53.346;-1.688;2022-11-09T06:21:42;8.50;99.90
28171;DHT22;15458;53.346;-1.688;2022-11-09T06:24:09;8.50;99.90
28171;DHT22;15458;53.346;-1.688;2022-11-09T06:26:35;8.50;99.90
28171;DHT22;15458;53.346;-1.688;2022-11-09T06:29:00;8.50;99.90
28171;DHT22;15458;53.346;-1.688;2022-11-09T06:31:26;8.40;99.90
28171;DHT22;15458;53.346;-1.688;2022-11-09T06:33:52;8.40;99.90
28171;DHT22;15458;53.346;-1.688;2022-11-09T06:36:18;8.40;99.90
28171;DHT22;15458;53.346;-1.688;2022-11-09T06:38:46;8.40;99.90
28171;DHT22;15458;53.346;-1.688;2022-11-09T06:41:12;8.40;99.90
28171;DHT22;15458;53.346;-1.688;2022-11-09T06:43:38;8.40;99.90
28171;DHT22;15458;53.346;-1.688;2022-11-09T06:46:04;8.30;99.90
28171;DHT22;15458;53.346;-1.688;2022-11-09T06:48:29;8.40;99.90
28171;DHT22;15458;53.346;-1.688;2022-11-09T06:51:02;8.40;99.90
28171;DHT22;15458;53.346;-1.688;2022-11-09T06:53:29;8.40;99.90
28171;DHT22;15458;53.346;-1.688;2022-11-09T06:56:00;8.40;99.90
28171;DHT22;15458;53.346;-1.688;2022-11-09T06:58:26;8.40;99.90
28171;DHT22;15458;53.346;-1.688;2022-11-09T07:00:51;8.40;99.90
28171;DHT22;15458;53.346;-1.688;2022-11-09T07:03:19;8.40;99.90
28171;DHT22;15458;53.346;-1.688;2022-11-09T07:05:45;8.40;99.90
28171;DHT22;15458;53.346;-1.688;2022-11-09T07:08:12;8.40;99.90
28171;DHT22;15458;53.346;-1.688;2022-11-09T07:10:39;8.40;99.90
28171;DHT22;15458;53.346;-1.688;2022-11-09T07:13:05;8.50;99.90
28171;DHT22;15458;53.346;-1.688;2022-11-09T07:15:32;8.40;99.90
28171;DHT22;15458;53.346;-1.688;2022-11-09T07:18:02;8.50;99.90
28171;DHT22;15458;53.346;-1.688;2022-11-09T07:20:29;8.50;99.90
28171;DHT22;15458;53.346;-1.688;2022-11-09T07:22:55;8.50;99.90
28171;DHT22;15458;53.346;-1.688;2022-11-09T07:25:21;8.50;99.90
28171;DHT22;15458;53.346;-1.688;2022-11-09T07:27:47;8.50;99.90
28171;DHT22;15458;53.346;-1.688;2022-11-09T07:30:13;8.50;99.90
28171;DHT22;15458;53.346;-1.688;2022-11-09T07:32:39;8.50;99.90
28171;DHT22;15458;53.346;-1.688;2022-11-09T07:35:06;8.50;99.90
28171;DHT22;15458;53.346;-1.688;2022-11-09T07:37:32;8.60;99.90
28171;DHT22;15458;53.346;-1.688;2022-11-09T07:39:57;8.60;99.90
28171;DHT22;15458;53.346;-1.688;2022-11-09T07:42:24;8.60;99.90
28171;DHT22;15458;53.346;-1.688;2022-11-09T07:44:50;8.60;99.90
28171;DHT22;15458;53.346;-1.688;2022-11-09T07:47:17;8.60;99.90
28171;DHT22;15458;53.346;-1.688;2022-11-09T07:49:43;8.60;99.90
28171;DHT22;15458;53.346;-1.688;2022-11-09T07:52:09;8.60;99.90
28171;DHT22;15458;53.346;-1.688;2022-11-09T07:54:35;8.70;99.90
28171;DHT22;15458;53.346;-1.688;2022-11-09T07:57:00;8.60;99.90
28171;DHT22;15458;53.346;-1.688;2022-11-09T07:59:27;8.70;99.90
28171;DHT22;15458;53.346;-1.688;2022-11-09T08:01:52;8.70;99.90
28171;DHT22;15458;53.346;-1.688;2022-11-09T08:04:18;8.70;99.90
28171;DHT22;15458;53.346;-1.688;2022-11-09T08:06:44;8.80;99.90
28171;DHT22;15458;53.346;-1.688;2022-11-09T08:09:10;8.80;99.90
28171;DHT22;15458;53.346;-1.688;2022-11-09T08:11:36;8.80;99.90
28171;DHT22;15458;53.346;-1.688;2022-11-09T08:14:01;8.80;99.90
28171;DHT22;15458;53.346;-1.688;2022-11-09T08:16:27;8.90;99.90
28171;DHT22;15458;53.346;-1.688;2022-11-09T08:18:52;8.90;99.90
28171;DHT22;15458;53.346;-1.688;2022-11-09T08:21:18;8.90;99.90
28171;DHT22;15458;53.346;-1.688;2022-11-09T08:23:44;9.00;99.90
28171;DHT22;15458;53.346;-1.688;2022-11-09T08:26:10;9.00;99.90
28171;DHT22;15458;53.346;-1.688;2022-11-09T08:28:39;9.00;99.90
28171;DHT22;15458;53.346;-1.688;2022-11-09T08:31:06;9.00;99.90
28171;DHT22;15458;53.346;-1.688;2022-11-09T08:33:35;9.00;99.90
28171;DHT22;15458;53.346;-1.688;2022-11-09T08:36:06;9.00;99.90
28171;DHT22;15458;53.346;-1.688;2022-11-09T08:38:36;9.10;99.90
28171;DHT22;15458;53.346;-1.688;2022-11-09T08:41:01;9.10;99.90
28171;DHT22;15458;53.346;-1.688;2022-11-09T08:43:27;9.10;99.90
28171;DHT22;15458;53.346;-1.688;2022-11-09T08:45:53;9.10;99.90
28171;DHT22;15458;53.346;-1.688;2022-11-09T08:48:18;9.10;99.90
28171;DHT22;15458;53.346;-1.688;2022-11-09T08:50:44;9.20;99.90
28171;DHT22;15458;53.346;-1.688;2022-11-09T08:53:10;9.20;99.90
28171;DHT22;15458;53.346;-1.688;2022-11-09T08:55:35;9.30;99.90
28171;DHT22;15458;53.346;-1.688;2022-11-09T08:58:04;9.30;99.90
28171;DHT22;15458;53.346;-1.688;2022-11-09T09:00:30;9.40;99.90
28171;DHT22;15458;53.346;-1.688;2022-11-09T09:03:01;9.50;99.90
28171;DHT22;15458;53.346;-1.688;2022-11-09T09:05:27;9.60;99.90
28171;DHT22;15458;53.346;-1.688;2022-11-09T09:07:54;9.70;99.90
28171;DHT22;15458;53.346;-1.688;2022-11-09T09:10:19;9.90;99.90
28171;DHT22;15458;53.346;-1.688;2022-11-09T09:12:45;10.00;99.90
28171;DHT22;15458;53.346;-1.688;2022-11-09T09:15:11;10.20;99.90
28171;DHT22;15458;53.346;-1.688;2022-11-09T09:17:36;10.40;99.90
28171;DHT22;15458;53.346;-1.688;2022-11-09T09:20:02;10.70;99.90
28171;DHT22;15458;53.346;-1.688;2022-11-09T09:22:28;10.90;99.90
28171;DHT22;15458;53.346;-1.688;2022-11-09T09:24:54;11.10;99.90
28171;DHT22;15458;53.346;-1.688;2022-11-09T09:27:19;11.40;99.90
28171;DHT22;15458;53.346;-1.688;2022-11-09T09:29:48;11.70;99.90
28171;DHT22;15458;53.346;-1.688;2022-11-09T09:32:13;11.90;99.90
28171;DHT22;15458;53.346;-1.688;2022-11-09T09:34:39;12.20;99.90
28171;DHT22;15458;53.346;-1.688;2022-11-09T09:37:05;12.40;99.90
28171;DHT22;15458;53.346;-1.688;2022-11-09T09:39:30;12.70;99.90
28171;DHT22;15458;53.346;-1.688;2022-11-09T09:42:10;12.90;99.90
28171;DHT22;15458;53.346;-1.688;2022-11-09T09:44:53;13.10;99.90
28171;DHT22;15458;53.346;-1.688;2022-11-09T09:47:39;13.30;99.90
28171;DHT22;15458;53.346;-1.688;2022-11-09T09:55:49;14.00;99.90
28171;DHT22;15458;53.346;-1.688;2022-11-09T09:58:28;14.10;99.90
28171;DHT22;15458;53.346;-1.688;2022-11-09T10:01:14;14.20;99.90
28171;DHT22;15458;53.346;-1.688;2022-11-09T10:03:41;14.30;99.90
28171;DHT22;15458;53.346;-1.688;2022-11-09T10:12:04;14.70;99.90
28171;DHT22;15458;53.346;-1.688;2022-11-09T10:14:49;14.80;99.90
28171;DHT22;15458;53.346;-1.688;2022-11-09T10:23:11;14.30;99.90
28171;DHT22;15458;53.346;-1.688;2022-11-09T10:25:41;14.00;99.90
28171;DHT22;15458;53.346;-1.688;2022-11-09T10:28:12;14.00;99.90
28171;DHT22;15458;53.346;-1.688;2022-11-09T10:30:39;14.10;99.90
28171;DHT22;15458;53.346;-1.688;2022-11-09T10:35:38;14.60;99.90
28171;DHT22;15458;53.346;-1.688;2022-11-09T10:38:19;14.90;99.90
28171;DHT22;15458;53.346;-1.688;2022-11-09T10:40:52;15.10;99.90
28171;DHT22;15458;53.346;-1.688;2022-11-09T10:43:18;15.30;99.90
28171;DHT22;15458;53.346;-1.688;2022-11-09T10:45:45;15.40;99.90
28171;DHT22;15458;53.346;-1.688;2022-11-09T10:48:31;15.60;99.90
28171;DHT22;15458;53.346;-1.688;2022-11-09T10:50:57;15.70;99.90
28171;DHT22;15458;53.346;-1.688;2022-11-09T10:53:32;15.70;98.90
28171;DHT22;15458;53.346;-1.688;2022-11-09T10:58:44;15.50;97.80
28171;DHT22;15458;53.346;-1.688;2022-11-09T11:01:24;15.40;98.20
28171;DHT22;15458;53.346;-1.688;2022-11-09T11:03:54;15.50;98.30
28171;DHT22;15458;53.346;-1.688;2022-11-09T11:11:35;15.70;96.70
28171;DHT22;15458;53.346;-1.688;2022-11-09T11:14:34;15.60;96.30
28171;DHT22;15458;53.346;-1.688;2022-11-09T11:17:00;15.30;96.10
28171;DHT22;15458;53.346;-1.688;2022-11-09T11:19:37;14.90;96.50
28171;DHT22;15458;53.346;-1.688;2022-11-09T11:25:16;14.10;98.30
28171;DHT22;15458;53.346;-1.688;2022-11-09T11:27:51;14.00;99.40
28171;DHT22;15458;53.346;-1.688;2022-11-09T11:30:31;14.00;99.90
28171;DHT22;15458;53.346;-1.688;2022-11-09T11:33:00;14.30;99.90
28171;DHT22;15458;53.346;-1.688;2022-11-09T11:35:44;14.80;99.90
28171;DHT22;15458;53.346;-1.688;2022-11-09T11:47:07;16.20;95.20
28171;DHT22;15458;53.346;-1.688;2022-11-09T11:55:03;16.70;93.40
28171;DHT22;15458;53.346;-1.688;2022-11-09T11:58:09;16.80;92.90
28171;DHT22;15458;53.346;-1.688;2022-11-09T12:04:05;16.80;90.70
28171;DHT22;15458;53.346;-1.688;2022-11-09T12:06:52;16.60;90.70
28171;DHT22;15458;53.346;-1.688;2022-11-09T12:09:25;16.50;90.70
28171;DHT22;15458;53.346;-1.688;2022-11-09T12:14:59;16.50;90.50
28171;DHT22;15458;53.346;-1.688;2022-11-09T12:37:39;15.90;90.60
28171;DHT22;15458;53.346;-1.688;2022-11-09T12:40:27;15.70;91.00
28171;DHT22;15458;53.346;-1.688;2022-11-09T12:45:32;15.50;91.70
28171;DHT22;15458;53.346;-1.688;2022-11-09T12:48:03;15.50;91.70
28171;DHT22;15458;53.346;-1.688;2022-11-09T12:50:31;15.70;91.90
28171;DHT22;15458;53.346;-1.688;2022-11-09T12:52:58;16.10;91.70
28171;DHT22;15458;53.346;-1.688;2022-11-09T12:55:33;16.50;91.00
28171;DHT22;15458;53.346;-1.688;2022-11-09T12:58:02;16.70;90.10
28171;DHT22;15458;53.346;-1.688;2022-11-09T13:03:19;16.60;88.60
28171;DHT22;15458;53.346;-1.688;2022-11-09T13:05:47;16.70;87.90
28171;DHT22;15458;53.346;-1.688;2022-11-09T13:08:25;16.70;86.80
28171;DHT22;15458;53.346;-1.688;2022-11-09T13:11:18;16.70;86.80
28171;DHT22;15458;53.346;-1.688;2022-11-09T13:13:45;16.90;86.30
28171;DHT22;15458;53.346;-1.688;2022-11-09T13:16:33;17.00;85.80
28171;DHT22;15458;53.346;-1.688;2022-11-09T13:19:01;16.90;83.90
28171;DHT22;15458;53.346;-1.688;2022-11-09T13:21:32;16.70;84.30
28171;DHT22;15458;53.346;-1.688;2022-11-09T13:27:03;16.50;85.30
28171;DHT22;15458;53.346;-1.688;2022-11-09T13:29:47;16.40;85.80
28171;DHT22;15458;53.346;-1.688;2022-11-09T13:37:37;16.40;85.90
28171;DHT22;15458;53.346;-1.688;2022-11-09T13:48:29;16.80;84.40
28171;DHT22;15458;53.346;-1.688;2022-11-09T13:51:00;17.20;83.80
28171;DHT22;15458;53.346;-1.688;2022-11-09T13:55:55;18.10;81.00
28171;DHT22;15458;53.346;-1.688;2022-11-09T13:58:40;18.40;80.40
28171;DHT22;15458;53.346;-1.688;2022-11-09T14:03:52;18.80;77.90
28171;DHT22;15458;53.346;-1.688;2022-11-09T14:06:18;19.00;77.60
28171;DHT22;15458;53.346;-1.688;2022-11-09T14:08:47;19.00;76.30
28171;DHT22;15458;53.346;-1.688;2022-11-09T14:21:58;16.20;82.10
28171;DHT22;15458;53.346;-1.688;2022-11-09T14:24:27;15.80;83.70
28171;DHT22;15458;53.346;-1.688;2022-11-09T14:29:36;15.60;85.90
28171;DHT22;15458;53.346;-1.688;2022-11-09T14:37:57;15.80;86.60
28171;DHT22;15458;53.346;-1.688;2022-11-09T14:40:28;16.20;86.30
28171;DHT22;15458;53.346;-1.688;2022-11-09T14:45:48;16.30;84.30
28171;DHT22;15458;53.346;-1.688;2022-11-09T14:48:19;16.50;83.90
28171;DHT22;15458;53.346;-1.688;2022-11-09T14:50:45;16.60;83.50
28171;DHT22;15458;53.346;-1.688;2022-11-09T14:53:19;16.80;83.10
28171;DHT22;15458;53.346;-1.688;2022-11-09T14:55:51;16.80;82.70
28171;DHT22;15458;53.346;-1.688;2022-11-09T14:58:18;16.40;82.50
28171;DHT22;15458;53.346;-1.688;2022-11-09T15:01:46;16.10;83.70
28171;DHT22;15458;53.346;-1.688;2022-11-09T15:06:32;15.20;86.40
28171;DHT22;15458;53.346;-1.688;2022-11-09T15:09:00;14.90;86.90
28171;DHT22;15458;53.346;-1.688;2022-11-09T15:11:35;14.60;87.80
28171;DHT22;15458;53.346;-1.688;2022-11-09T15:14:22;14.40;89.10
28171;DHT22;15458;53.346;-1.688;2022-11-09T15:19:33;13.90;90.20
28171;DHT22;15458;53.346;-1.688;2022-11-09T15:22:01;13.70;90.60
28171;DHT22;15458;53.346;-1.688;2022-11-09T15:24:27;13.60;90.60
28171;DHT22;15458;53.346;-1.688;2022-11-09T15:26:55;13.40;90.90
28171;DHT22;15458;53.346;-1.688;2022-11-09T15:29:35;13.20;91.00
28171;DHT22;15458;53.346;-1.688;2022-11-09T15:32:14;13.10;91.40
28171;DHT22;15458;53.346;-1.688;2022-11-09T15:34:52;13.00;91.70
28171;DHT22;15458;53.346;-1.688;2022-11-09T15:37:28;12.90;92.00
28171;DHT22;15458;53.346;-1.688;2022-11-09T15:39:55;12.70;92.30
28171;DHT22;15458;53.346;-1.688;2022-11-09T15:42:21;12.60;93.20
28171;DHT22;15458;53.346;-1.688;2022-11-09T15:44:55;12.50;93.20
28171;DHT22;15458;53.346;-1.688;2022-11-09T15:47:23;12.50;93.60
28171;DHT22;15458;53.346;-1.688;2022-11-09T15:49:49;12.50;94.00
28171;DHT22;15458;53.346;-1.688;2022-11-09T15:52:15;12.40;94.30
28171;DHT22;15458;53.346;-1.688;2022-11-09T15:54:40;12.40;94.70
28171;DHT22;15458;53.346;-1.688;2022-11-09T15:57:06;12.40;94.90
28171;DHT22;15458;53.346;-1.688;2022-11-09T15:59:35;12.30;95.30
28171;DHT22;15458;53.346;-1.688;2022-11-09T16:02:01;12.30;95.60
28171;DHT22;15458;53.346;-1.688;2022-11-09T16:04:26;12.20;96.00
28171;DHT22;15458;53.346;-1.688;2022-11-09T16:06:52;12.20;96.30
28171;DHT22;15458;53.346;-1.688;2022-11-09T16:09:18;12.10;96.70
28171;DHT22;15458;53.346;-1.688;2022-11-09T16:11:43;12.10;97.00
28171;DHT22;15458;53.346;-1.688;2022-11-09T16:14:09;12.10;97.30
28171;DHT22;15458;53.346;-1.688;2022-11-09T16:16:34;12.00;97.50
28171;DHT22;15458;53.346;-1.688;2022-11-09T16:19:00;11.90;97.80
28171;DHT22;15458;53.346;-1.688;2022-11-09T16:21:26;11.90;98.00
28171;DHT22;15458;53.346;-1.688;2022-11-09T16:23:51;11.80;98.30
28171;DHT22;15458;53.346;-1.688;2022-11-09T16:26:19;11.70;98.50
28171;DHT22;15458;53.346;-1.688;2022-11-09T16:28:44;11.70;98.70
28171;DHT22;15458;53.346;-1.688;2022-11-09T16:31:11;11.60;99.00
28171;DHT22;15458;53.346;-1.688;2022-11-09T16:33:38;11.60;99.30
28171;DHT22;15458;53.346;-1.688;2022-11-09T16:36:16;11.60;99.40
28171;DHT22;15458;53.346;-1.688;2022-11-09T16:38:45;11.50;99.60
28171;DHT22;15458;53.346;-1.688;2022-11-09T16:41:12;11.40;99.80
28171;DHT22;15458;53.346;-1.688;2022-11-09T16:43:39;11.40;99.90
28171;DHT22;15458;53.346;-1.688;2022-11-09T16:46:05;11.30;99.90
28171;DHT22;15458;53.346;-1.688;2022-11-09T16:48:34;11.30;99.90
28171;DHT22;15458;53.346;-1.688;2022-11-09T16:51:00;11.30;99.90
28171;DHT22;15458;53.346;-1.688;2022-11-09T16:53:26;11.20;99.90
28171;DHT22;15458;53.346;-1.688;2022-11-09T16:55:52;11.20;99.90
28171;DHT22;15458;53.346;-1.688;2022-11-09T16:58:18;11.20;99.90
28171;DHT22;15458;53.346;-1.688;2022-11-09T17:00:44;11.10;99.90
28171;DHT22;15458;53.346;-1.688;2022-11-09T17:03:11;11.10;99.90
28171;DHT22;15458;53.346;-1.688;2022-11-09T17:05:38;11.10;99.90
28171;DHT22;15458;53.346;-1.688;2022-11-09T17:08:05;11.10;99.90
28171;DHT22;15458;53.346;-1.688;2022-11-09T17:10:31;11.10;99.90
28171;DHT22;15458;53.346;-1.688;2022-11-09T17:12:57;11.10;99.90
28171;DHT22;15458;53.346;-1.688;2022-11-09T17:15:23;11.10;99.90
28171;DHT22;15458;53.346;-1.688;2022-11-09T17:17:48;11.10;99.90
28171;DHT22;15458;53.346;-1.688;2022-11-09T17:20:15;11.10;99.90
28171;DHT22;15458;53.346;-1.688;2022-11-09T17:22:40;11.10;99.90
28171;DHT22;15458;53.346;-1.688;2022-11-09T17:25:07;11.10;99.90
28171;DHT22;15458;53.346;-1.688;2022-11-09T17:27:36;11.10;99.90
28171;DHT22;15458;53.346;-1.688;2022-11-09T17:30:02;11.20;99.90
28171;DHT22;15458;53.346;-1.688;2022-11-09T17:32:28;11.30;99.90
28171;DHT22;15458;53.346;-1.688;2022-11-09T17:34:54;11.40;99.90
28171;DHT22;15458;53.346;-1.688;2022-11-09T17:37:20;11.50;99.90
28171;DHT22;15458;53.346;-1.688;2022-11-09T17:39:45;11.50;99.90
28171;DHT22;15458;53.346;-1.688;2022-11-09T17:42:11;11.50;99.90